createdAt,value
2019-05-29T00:00:21.318Z,94575.52
2019-05-29T00:02:49.878Z,94582.14
2019-05-29T00:05:18.506Z,94582.44
2019-05-29T00:07:47.195Z,94580.34
2019-05-29T00:10:18.407Z,94582.44
2019-05-29T00:12:47.266Z,94582.75
2019-05-29T00:15:16.090Z,94588.53
2019-05-29T00:17:44.880Z,94593.83
2019-05-29T00:20:14.617Z,94591.77
2019-05-29T00:22:43.271Z,94600.16
2019-05-29T00:25:12.488Z,94601.48
2019-05-29T00:27:41.110Z,94600.16
2019-05-29T00:30:10.782Z,94592.29
2019-05-29T00:32:39.572Z,94592.55
2019-05-29T00:35:10.236Z,94599.91
2019-05-29T00:37:39.040Z,94602.78
2019-05-29T00:40:08.926Z,94606.72
2019-05-29T00:42:37.651Z,94611.45
2019-05-29T00:45:09.549Z,94607.25
2019-05-29T00:47:38.416Z,94609.09
2019-05-29T00:50:07.987Z,94607.81
2019-05-29T00:52:36.798Z,94604.40
2019-05-29T00:55:06.824Z,94608.89
2019-05-29T00:57:35.465Z,94612.59
2019-05-29T01:00:06.120Z,94612.61
2019-05-29T01:02:34.825Z,94607.91
2019-05-29T01:05:04.286Z,94604.78
2019-05-29T01:07:32.845Z,94608.72
2019-05-29T01:10:01.511Z,94609.55
2019-05-29T01:12:30.138Z,94612.41
2019-05-29T01:14:58.697Z,94605.87
2019-05-29T01:17:27.282Z,94606.92
2019-05-29T01:19:55.771Z,94603.02
2019-05-29T01:22:24.383Z,94604.84
2019-05-29T01:24:53.022Z,94606.38
2019-05-29T01:27:23.020Z,94607.70
2019-05-29T01:29:51.809Z,94603.78
2019-05-29T01:32:21.554Z,94602.98
2019-05-29T01:34:50.414Z,94604.28
2019-05-29T01:37:20.239Z,94606.38
2019-05-29T01:39:48.938Z,94608.98
2019-05-29T01:42:17.568Z,94608.19
2019-05-29T01:44:46.298Z,94613.69
2019-05-29T01:47:15.376Z,94620.48
2019-05-29T01:49:44.014Z,94625.98
2019-05-29T01:52:12.664Z,94628.86
2019-05-29T01:54:41.296Z,94629.38
2019-05-29T01:57:09.928Z,94623.10
2019-05-29T01:59:38.555Z,94624.11
2019-05-29T02:02:07.340Z,94621.73
2019-05-29T02:04:35.902Z,94622.51
2019-05-29T02:07:04.834Z,94624.30
2019-05-29T02:09:33.409Z,94633.98
2019-05-29T02:12:02.046Z,94633.90
2019-05-29T02:14:30.688Z,94630.23
2019-05-29T02:16:59.314Z,94636.53
2019-05-29T02:19:28.278Z,94632.05
2019-05-29T02:21:56.885Z,94639.13
2019-05-29T02:24:25.519Z,94641.77
2019-05-29T02:26:54.153Z,94641.48
2019-05-29T02:29:22.979Z,94635.42
2019-05-29T02:31:51.710Z,94635.13
2019-05-29T02:34:22.314Z,94632.75
2019-05-29T02:36:50.768Z,94640.09
2019-05-29T02:39:21.147Z,94640.04
2019-05-29T02:41:49.757Z,94638.45
2019-05-29T02:44:19.214Z,94648.09
2019-05-29T02:46:47.938Z,94645.23
2019-05-29T02:49:16.847Z,94651.75
2019-05-29T02:51:45.400Z,94653.59
2019-05-29T02:54:14.080Z,94656.23
2019-05-29T02:56:42.944Z,94655.41
2019-05-29T02:59:11.617Z,94657.81
2019-05-29T03:01:40.256Z,94658.87
2019-05-29T03:04:08.883Z,94654.16
2019-05-29T03:06:37.530Z,94661.27
2019-05-29T03:09:07.083Z,94662.89
2019-05-29T03:11:35.722Z,94665.00
2019-05-29T03:14:04.652Z,94666.84
2019-05-29T03:16:34.946Z,94673.92
2019-05-29T03:19:03.745Z,94672.58
2019-05-29T03:21:33.101Z,94678.38
2019-05-29T03:24:02.834Z,94677.05
2019-05-29T03:26:33.436Z,94674.92
2019-05-29T03:29:01.862Z,94679.67
2019-05-29T03:31:37.788Z,94679.66
2019-05-29T03:34:00.743Z,94681.75
2019-05-29T03:36:37.617Z,94687.52
2019-05-29T03:38:59.727Z,94684.95
2019-05-29T03:41:28.463Z,94688.92
2019-05-29T03:43:57.102Z,94689.70
2019-05-29T03:46:34.368Z,94695.76
2019-05-29T03:48:56.054Z,94694.49
2019-05-29T03:51:24.697Z,94691.89
2019-05-29T03:53:53.326Z,94687.98
2019-05-29T03:56:21.955Z,94691.38
2019-05-29T03:58:50.537Z,94690.86
2019-05-29T04:01:19.168Z,94690.85
2019-05-29T04:03:47.829Z,94687.97
2019-05-29T04:06:16.548Z,94695.57
2019-05-29T04:08:45.096Z,94698.44
2019-05-29T04:11:13.737Z,94699.23
2019-05-29T04:13:42.381Z,94704.97
2019-05-29T04:16:11.318Z,94697.40
2019-05-29T04:18:41.549Z,94700.33
2019-05-29T04:21:12.034Z,94705.84
2019-05-29T04:23:42.566Z,94708.69
2019-05-29T04:26:13.892Z,94713.16
2019-05-29T04:28:43.005Z,94718.12
2019-05-29T04:31:11.630Z,94718.12
2019-05-29T04:33:40.263Z,94717.09
2019-05-29T04:36:08.902Z,94722.38
2019-05-29T04:38:40.320Z,94728.95
2019-05-29T04:41:08.874Z,94731.05
2019-05-29T04:43:39.649Z,94722.70
2019-05-29T04:46:07.866Z,94731.88
2019-05-29T04:48:38.295Z,94729.53
2019-05-29T04:51:06.889Z,94729.01
2019-05-29T04:53:35.909Z,94725.86
2019-05-29T04:56:06.090Z,94728.55
2019-05-29T04:58:34.889Z,94734.03
2019-05-29T05:01:03.670Z,94729.86
2019-05-29T05:03:33.211Z,94731.20
2019-05-29T05:06:02.007Z,94728.05
2019-05-29T05:08:31.681Z,94734.35
2019-05-29T05:11:00.620Z,94731.71
2019-05-29T05:13:29.540Z,94739.07
2019-05-29T05:16:00.155Z,94729.36
2019-05-29T05:18:29.756Z,94729.88
2019-05-29T05:20:58.579Z,94732.22
2019-05-29T05:23:27.220Z,94731.66
2019-05-29T05:25:55.806Z,94728.95
2019-05-29T05:28:24.429Z,94728.36
2019-05-29T05:30:53.144Z,94732.22
2019-05-29T05:33:21.784Z,94728.50
2019-05-29T05:35:50.360Z,94737.07
2019-05-29T05:38:18.995Z,94728.34
2019-05-29T05:40:47.670Z,94730.55
2019-05-29T05:43:24.216Z,94730.23
2019-05-29T05:45:46.654Z,94724.52
2019-05-29T05:48:15.319Z,94730.61
2019-05-29T05:50:43.963Z,94730.55
2019-05-29T05:53:12.603Z,94731.67
2019-05-29T05:55:41.811Z,94730.48
2019-05-29T05:58:10.572Z,94726.34
2019-05-29T06:00:39.921Z,94729.45
2019-05-29T06:03:08.677Z,94737.91
2019-05-29T06:05:38.216Z,94738.50
2019-05-29T06:08:06.930Z,94736.73
2019-05-29T06:10:36.673Z,94737.39
2019-05-29T06:13:06.007Z,94735.91
2019-05-29T06:15:34.649Z,94735.49
2019-05-29T06:18:19.780Z,94736.81
2019-05-29T06:20:34.730Z,94740.01
2019-05-29T06:23:03.475Z,94739.31
2019-05-29T06:25:33.867Z,94747.60
2019-05-29T06:28:02.631Z,94744.70
2019-05-29T06:30:31.270Z,94742.22
2019-05-29T06:32:59.833Z,94743.94
2019-05-29T06:35:28.464Z,94745.06
2019-05-29T06:37:57.041Z,94748.91
2019-05-29T06:40:36.265Z,94744.02
2019-05-29T06:43:05.925Z,94745.83
2019-05-29T06:45:36.158Z,94744.41
2019-05-29T06:48:07.496Z,94744.09
2019-05-29T06:50:37.356Z,94752.84
2019-05-29T06:53:06.147Z,94753.64
2019-05-29T06:55:35.824Z,94750.37
2019-05-29T06:58:04.707Z,94746.64
2019-05-29T07:00:35.626Z,94743.67
2019-05-29T07:03:03.697Z,94743.42
2019-05-29T07:05:32.297Z,94744.05
2019-05-29T07:08:16.934Z,94745.71
2019-05-29T07:10:31.194Z,94743.13
2019-05-29T07:12:59.844Z,94745.05
2019-05-29T07:15:28.489Z,94745.40
2019-05-29T07:17:57.115Z,94750.41
2019-05-29T07:20:25.754Z,94744.78
2019-05-29T07:22:54.398Z,94751.33
2019-05-29T07:25:23.124Z,94746.73
2019-05-29T07:27:51.798Z,94748.72
2019-05-29T07:30:22.248Z,94749.91
2019-05-29T07:32:57.202Z,94753.81
2019-05-29T07:35:21.159Z,94752.19
2019-05-29T07:37:49.805Z,94748.84
2019-05-29T07:40:19.985Z,94751.62
2019-05-29T07:42:55.272Z,94748.91
2019-05-29T07:45:19.163Z,94751.55
2019-05-29T07:47:48.549Z,94738.74
2019-05-29T07:50:17.568Z,94745.86
2019-05-29T07:52:47.308Z,94745.39
2019-05-29T07:55:16.727Z,94752.70
2019-05-29T07:57:46.876Z,94746.58
2019-05-29T08:00:15.845Z,94749.95
2019-05-29T08:02:45.369Z,94753.02
2019-05-29T08:05:14.883Z,94756.95
2019-05-29T08:07:43.591Z,94761.36
2019-05-29T08:10:12.806Z,94762.97
2019-05-29T08:12:45.913Z,94767.00
2019-05-29T08:15:12.050Z,94763.98
2019-05-29T08:17:41.893Z,94769.34
2019-05-29T08:20:10.796Z,94772.55
2019-05-29T08:22:40.183Z,94772.49
2019-05-29T08:25:11.280Z,94765.14
2019-05-29T08:27:40.557Z,94743.60
2019-05-29T08:30:10.214Z,94766.91
2019-05-29T08:32:38.848Z,94766.91
2019-05-29T08:35:07.693Z,94764.27
2019-05-29T08:37:36.358Z,94772.86
2019-05-29T08:40:08.683Z,94768.62
2019-05-29T08:42:37.448Z,94772.89
2019-05-29T08:45:07.763Z,94768.47
2019-05-29T08:47:38.026Z,94772.62
2019-05-29T08:50:18.187Z,94766.98
2019-05-29T08:52:37.716Z,94767.25
2019-05-29T08:55:06.689Z,94774.84
2019-05-29T08:57:35.269Z,94770.02
2019-05-29T09:00:06.315Z,94772.89
2019-05-29T09:02:34.963Z,94766.22
2019-05-29T09:05:05.356Z,94770.20
2019-05-29T09:07:33.950Z,94763.02
2019-05-29T09:10:02.721Z,94763.41
2019-05-29T09:12:31.340Z,94766.22
2019-05-29T09:15:00.220Z,94762.77
2019-05-29T09:17:28.827Z,94734.73
2019-05-29T09:19:57.467Z,94734.73
2019-05-29T09:22:26.108Z,94757.41
2019-05-29T09:24:54.733Z,94747.58
2019-05-29T09:27:23.412Z,94751.66
2019-05-29T09:29:52.064Z,94746.33
2019-05-29T09:32:47.572Z,94749.34
2019-05-29T09:34:51.050Z,94744.67
2019-05-29T09:37:20.514Z,94744.69
2019-05-29T09:39:49.151Z,94729.36
2019-05-29T09:42:19.152Z,94747.73
2019-05-29T09:44:48.142Z,94748.66
2019-05-29T09:47:17.270Z,94750.75
2019-05-29T09:49:47.330Z,94747.61
2019-05-29T09:52:15.888Z,94756.58
2019-05-29T09:54:44.439Z,94755.18
2019-05-29T09:57:15.365Z,94752.89
2019-05-29T09:59:43.444Z,94745.34
2019-05-29T10:02:12.105Z,94743.72
2019-05-29T10:04:40.905Z,94738.81
2019-05-29T10:07:09.504Z,94734.86
2019-05-29T10:09:38.159Z,94739.70
2019-05-29T10:12:07.051Z,94742.16
2019-05-29T10:14:35.851Z,94726.75
2019-05-29T10:17:10.970Z,94720.63
2019-05-29T10:19:34.981Z,94701.89
2019-05-29T10:22:04.391Z,94701.89
2019-05-29T10:24:33.980Z,94704.78
2019-05-29T10:27:03.597Z,94702.30
2019-05-29T10:29:33.273Z,94699.22
2019-05-29T10:32:01.903Z,94700.61
2019-05-29T10:34:30.536Z,94702.40
2019-05-29T10:36:59.234Z,94702.40
2019-05-29T10:39:27.863Z,94691.53
2019-05-29T10:41:56.489Z,94694.07
2019-05-29T10:44:25.170Z,94693.56
2019-05-29T10:46:55.928Z,94682.53
2019-05-29T10:49:24.367Z,94673.90
2019-05-29T10:52:07.619Z,94676.39
2019-05-29T10:54:23.376Z,94679.78
2019-05-29T10:56:52.947Z,94670.18
2019-05-29T10:59:22.034Z,94671.66
2019-05-29T11:01:51.321Z,94671.41
2019-05-29T11:04:20.375Z,94666.95
2019-05-29T11:06:50.157Z,94669.05
2019-05-29T11:09:18.930Z,94663.20
2019-05-29T11:11:48.379Z,94673.97
2019-05-29T11:14:17.206Z,94657.49
2019-05-29T11:16:46.944Z,94659.39
2019-05-29T11:19:15.747Z,94664.22
2019-05-29T11:21:44.385Z,94650.14
2019-05-29T11:24:13.023Z,94650.83
2019-05-29T11:26:41.647Z,94659.51
2019-05-29T11:29:10.293Z,94657.53
2019-05-29T11:31:38.915Z,94657.58
2019-05-29T11:34:07.545Z,94658.10
2019-05-29T11:36:36.185Z,94667.23
2019-05-29T11:39:08.465Z,94666.59
2019-05-29T11:41:37.023Z,94665.77
2019-05-29T11:44:05.672Z,94659.18
2019-05-29T11:46:34.708Z,94656.28
2019-05-29T11:49:03.682Z,94656.63
2019-05-29T11:51:32.451Z,94655.89
2019-05-29T11:54:02.461Z,94657.29
2019-05-29T11:56:31.393Z,94654.55
2019-05-29T11:59:00.234Z,94652.03
2019-05-29T12:01:28.943Z,94645.98
2019-05-29T12:04:18.461Z,94642.97
2019-05-29T12:06:28.138Z,94643.90
2019-05-29T12:08:57.977Z,94644.57
2019-05-29T12:11:26.693Z,94647.20
2019-05-29T12:13:56.120Z,94639.52
2019-05-29T12:16:24.917Z,94641.25
2019-05-29T12:18:53.720Z,94647.99
2019-05-29T12:21:22.457Z,94647.31
2019-05-29T12:23:51.989Z,94642.47
2019-05-29T12:26:23.032Z,94639.23
2019-05-29T12:28:51.033Z,94641.63
2019-05-29T12:31:19.665Z,94640.84
2019-05-29T12:33:48.307Z,94642.89
2019-05-29T12:36:16.974Z,94645.42
2019-05-29T12:38:45.597Z,94640.58
2019-05-29T12:41:14.229Z,94639.23
2019-05-29T12:43:42.872Z,94638.39
2019-05-29T12:46:11.511Z,94643.84
2019-05-29T12:48:40.150Z,94638.89
2019-05-29T12:51:08.753Z,94640.40
2019-05-29T12:53:37.442Z,94635.22
2019-05-29T12:56:06.082Z,94633.09
2019-05-29T12:58:34.717Z,94632.38
2019-05-29T13:01:04.978Z,94620.69
2019-05-29T13:03:33.985Z,94629.13
2019-05-29T13:06:02.627Z,94629.09
2019-05-29T13:08:31.272Z,94630.78
2019-05-29T13:11:00.420Z,94636.52
2019-05-29T13:13:29.213Z,94632.06
2019-05-29T13:15:58.752Z,94623.39
2019-05-29T13:18:27.514Z,94632.64
2019-05-29T13:20:56.731Z,94631.38
2019-05-29T13:23:25.452Z,94623.82
2019-05-29T13:25:55.275Z,94619.56
2019-05-29T13:28:23.971Z,94614.10
2019-05-29T13:30:52.604Z,94608.58
2019-05-29T13:33:21.217Z,94611.37
2019-05-29T13:35:49.859Z,94620.92
2019-05-29T13:38:18.513Z,94615.37
2019-05-29T13:40:47.147Z,94622.36
2019-05-29T13:43:16.171Z,94622.23
2019-05-29T13:45:44.934Z,94623.92
2019-05-29T13:48:13.568Z,94623.80
2019-05-29T13:50:42.241Z,94624.37
2019-05-29T13:53:10.873Z,94620.30
2019-05-29T13:55:39.754Z,94622.17
2019-05-29T13:58:08.405Z,94622.59
2019-05-29T14:00:37.117Z,94621.57
2019-05-29T14:03:07.054Z,94626.05
2019-05-29T14:05:36.413Z,94632.02
2019-05-29T14:08:05.038Z,94628.24
2019-05-29T14:10:33.846Z,94638.73
2019-05-29T14:13:03.049Z,94632.95
2019-05-29T14:15:31.741Z,94636.48
2019-05-29T14:18:00.746Z,94640.21
2019-05-29T14:20:29.451Z,94636.56
2019-05-29T14:22:58.101Z,94646.05
2019-05-29T14:25:26.742Z,94645.59
2019-05-29T14:27:55.374Z,94646.05
2019-05-29T14:30:24.427Z,94641.50
2019-05-29T14:32:53.003Z,94633.84
2019-05-29T14:35:21.682Z,94636.83
2019-05-29T14:37:50.316Z,94637.69
2019-05-29T14:40:19.246Z,94640.90
2019-05-29T14:42:47.894Z,94637.44
2019-05-29T14:45:16.638Z,94629.73
2019-05-29T14:47:45.495Z,94629.31
2019-05-29T14:50:14.991Z,94628.44
2019-05-29T14:52:43.652Z,94632.80
2019-05-29T14:55:17.985Z,94624.12
2019-05-29T14:57:43.512Z,94627.64
2019-05-29T15:00:22.904Z,94625.63
2019-05-29T15:02:44.423Z,94627.86
2019-05-29T15:05:14.781Z,94619.11
2019-05-29T15:07:43.667Z,94626.56
2019-05-29T15:10:24.809Z,94631.66
2019-05-29T15:12:42.972Z,94632.11
2019-05-29T15:15:16.268Z,94634.63
2019-05-29T15:17:43.655Z,94632.62
2019-05-29T15:20:14.439Z,94629.64
2019-05-29T15:22:43.414Z,94628.77
2019-05-29T15:25:21.042Z,94631.20
2019-05-29T15:27:43.702Z,94630.88
2019-05-29T15:30:19.724Z,94623.56
2019-05-29T15:32:42.999Z,94629.50
2019-05-29T15:35:16.103Z,94629.63
2019-05-29T15:37:42.218Z,94632.62
2019-05-29T15:40:12.715Z,94631.97
2019-05-29T15:42:41.588Z,94634.64
2019-05-29T15:45:11.953Z,94634.42
2019-05-29T15:47:40.655Z,94630.19
2019-05-29T15:50:11.392Z,94638.27
2019-05-29T15:52:40.517Z,94643.17
2019-05-29T15:55:27.389Z,94650.69
2019-05-29T15:57:40.223Z,94654.98
2019-05-29T16:00:11.333Z,94668.31
2019-05-29T16:02:40.219Z,94666.73
2019-05-29T16:05:10.896Z,94670.66
2019-05-29T16:07:39.981Z,94669.93
2019-05-29T16:10:13.106Z,94677.61
2019-05-29T16:12:40.681Z,94683.91
2019-05-29T16:15:11.227Z,94678.33
2019-05-29T16:17:40.021Z,94680.02
2019-05-29T16:20:10.322Z,94692.66
2019-05-29T16:22:39.440Z,94696.81
2019-05-29T16:25:08.494Z,94692.11
2019-05-29T16:27:37.241Z,94699.98
2019-05-29T16:30:08.733Z,94700.53
2019-05-29T16:32:37.386Z,94697.30
2019-05-29T16:35:07.520Z,94698.53
2019-05-29T16:37:36.212Z,94697.59
2019-05-29T16:40:09.982Z,94696.59
2019-05-29T16:42:38.615Z,94705.77
2019-05-29T16:45:12.060Z,94704.44
2019-05-29T16:47:40.945Z,94706.73
2019-05-29T16:50:10.192Z,94714.05
2019-05-29T16:52:39.030Z,94706.78
2019-05-29T16:55:08.527Z,94703.64
2019-05-29T16:57:37.188Z,94707.05
2019-05-29T17:00:10.495Z,94700.23
2019-05-29T17:02:39.595Z,94710.34
2019-05-29T17:05:08.930Z,94714.35
2019-05-29T17:07:37.584Z,94722.67
2019-05-29T17:10:07.034Z,94731.50
2019-05-29T17:12:35.699Z,94729.80
2019-05-29T17:15:10.112Z,94741.70
2019-05-29T17:17:39.161Z,94742.00
2019-05-29T17:20:09.192Z,94738.77
2019-05-29T17:22:37.824Z,94736.84
2019-05-29T17:25:06.570Z,94741.20
2019-05-29T17:27:35.407Z,94746.80
2019-05-29T17:30:05.372Z,94746.85
2019-05-29T17:32:34.000Z,94748.12
2019-05-29T17:35:02.849Z,94755.06
2019-05-29T17:37:31.486Z,94761.55
2019-05-29T17:40:00.139Z,94765.70
2019-05-29T17:42:28.781Z,94765.98
2019-05-29T17:44:57.556Z,94766.44
2019-05-29T17:47:26.254Z,94763.42
2019-05-29T17:49:54.913Z,94762.56
2019-05-29T17:52:23.919Z,94762.69
2019-05-29T17:54:52.691Z,94764.76
2019-05-29T17:57:21.957Z,94759.74
2019-05-29T17:59:50.763Z,94771.45
2019-05-29T18:02:20.264Z,94780.48
2019-05-29T18:04:48.900Z,94782.06
2019-05-29T18:07:18.377Z,94779.64
2019-05-29T18:09:47.150Z,94791.78
2019-05-29T18:12:17.124Z,94797.63
2019-05-29T18:14:45.987Z,94797.56
2019-05-29T18:17:14.687Z,94800.46
2019-05-29T18:19:43.306Z,94801.41
2019-05-29T18:22:11.950Z,94806.05
2019-05-29T18:24:40.577Z,94810.73
2019-05-29T18:27:09.223Z,94811.92
2019-05-29T18:29:38.132Z,94811.48
2019-05-29T18:32:06.758Z,94815.98
2019-05-29T18:34:35.440Z,94818.80
2019-05-29T18:37:04.084Z,94827.09
2019-05-29T18:39:32.714Z,94830.03
2019-05-29T18:42:01.415Z,94834.30
2019-05-29T18:44:30.054Z,94838.13
2019-05-29T18:46:58.835Z,94844.24
2019-05-29T18:49:28.608Z,94847.52
2019-05-29T18:52:00.285Z,94856.73
2019-05-29T18:54:27.998Z,94860.78
2019-05-29T18:57:13.939Z,94859.02
2019-05-29T18:59:27.596Z,94857.66
2019-05-29T19:01:56.427Z,94863.52
2019-05-29T19:04:25.572Z,94864.11
2019-05-29T19:06:54.338Z,94869.59
2019-05-29T19:09:23.621Z,94878.08
2019-05-29T19:11:52.310Z,94880.71
2019-05-29T19:14:21.741Z,94885.52
2019-05-29T19:16:50.587Z,94887.19
2019-05-29T19:19:19.312Z,94888.23
2019-05-29T19:21:47.937Z,94890.66
2019-05-29T19:24:16.569Z,94900.16
2019-05-29T19:26:45.285Z,94904.11
2019-05-29T19:29:13.935Z,94912.34
2019-05-29T19:31:42.793Z,94913.66
2019-05-29T19:34:11.583Z,94912.65
2019-05-29T19:36:40.216Z,94914.25
2019-05-29T19:39:09.263Z,94914.55
2019-05-29T19:41:37.893Z,94927.14
2019-05-29T19:44:06.519Z,94930.61
2019-05-29T19:46:52.551Z,94933.27
2019-05-29T19:49:05.508Z,94937.46
2019-05-29T19:51:35.455Z,94941.42
2019-05-29T19:54:04.254Z,94946.43
2019-05-29T19:56:33.843Z,94950.69
2019-05-29T19:59:02.576Z,94955.95
2019-05-29T20:01:36.153Z,94958.85
2019-05-29T20:04:01.717Z,94968.61
2019-05-29T20:06:30.984Z,94978.65
2019-05-29T20:08:59.743Z,94980.44
2019-05-29T20:11:29.400Z,94983.30
2019-05-29T20:13:58.202Z,94988.57
2019-05-29T20:16:27.996Z,94980.66
2019-05-29T20:18:56.900Z,94983.55
2019-05-29T20:21:25.528Z,94979.88
2019-05-29T20:23:54.154Z,94986.98
2019-05-29T20:26:22.798Z,94984.66
2019-05-29T20:28:51.423Z,94988.61
2019-05-29T20:31:19.986Z,94993.39
2019-05-29T20:33:48.620Z,94989.71
2019-05-29T20:36:17.250Z,94994.48
2019-05-29T20:38:45.882Z,94990.01
2019-05-29T20:41:14.655Z,94991.89
2019-05-29T20:43:43.299Z,94990.84
2019-05-29T20:46:11.915Z,94991.64
2019-05-29T20:48:40.562Z,95002.98
2019-05-29T20:51:09.199Z,94999.04
2019-05-29T20:53:37.840Z,95005.88
2019-05-29T20:56:06.464Z,95012.49
2019-05-29T20:58:35.654Z,95023.02
2019-05-29T21:01:04.455Z,95020.91
2019-05-29T21:03:34.255Z,95034.86
2019-05-29T21:06:03.645Z,95029.04
2019-05-29T21:08:32.737Z,95027.20
2019-05-29T21:11:01.417Z,95038.55
2019-05-29T21:13:30.032Z,95041.41
2019-05-29T21:15:58.713Z,95039.09
2019-05-29T21:18:27.273Z,95038.03
2019-05-29T21:20:55.983Z,95035.95
2019-05-29T21:23:24.632Z,95038.32
2019-05-29T21:25:53.251Z,95040.69
2019-05-29T21:28:21.754Z,95044.11
2019-05-29T21:30:50.388Z,95042.80
2019-05-29T21:33:18.957Z,95038.58
2019-05-29T21:35:47.585Z,95045.97
2019-05-29T21:38:16.270Z,95048.34
2019-05-29T21:40:44.890Z,95044.93
2019-05-29T21:43:13.446Z,95042.58
2019-05-29T21:45:43.123Z,95050.99
2019-05-29T21:48:11.797Z,95048.63
2019-05-29T21:50:41.093Z,95055.73
2019-05-29T21:53:09.851Z,95057.83
2019-05-29T21:55:39.500Z,95056.02
2019-05-29T21:58:08.247Z,95049.17
2019-05-29T22:00:48.276Z,95049.96
2019-05-29T22:03:16.964Z,95049.97
2019-05-29T22:05:46.822Z,95039.72
2019-05-29T22:08:15.591Z,95046.53
2019-05-29T22:10:44.621Z,95041.03
2019-05-29T22:13:13.359Z,95043.90
2019-05-29T22:15:41.981Z,95039.70
2019-05-29T22:18:10.658Z,95043.91
2019-05-29T22:20:39.281Z,95046.25
2019-05-29T22:23:07.950Z,95041.78
2019-05-29T22:25:36.609Z,95041.53
2019-05-29T22:28:05.254Z,95043.35
2019-05-29T22:30:33.913Z,95046.26
2019-05-29T22:33:02.561Z,95050.19
2019-05-29T22:35:31.193Z,95055.45
2019-05-29T22:38:00.110Z,95052.55
2019-05-29T22:40:28.830Z,95051.22
2019-05-29T22:42:57.654Z,95055.97
2019-05-29T22:45:26.272Z,95056.22
2019-05-29T22:47:55.757Z,95057.80
2019-05-29T22:50:24.514Z,95051.49
2019-05-29T22:52:53.781Z,95055.18
2019-05-29T22:55:22.545Z,95056.75
2019-05-29T22:57:51.858Z,95057.53
2019-05-29T23:00:20.988Z,95058.34
2019-05-29T23:02:49.643Z,95063.06
2019-05-29T23:05:18.557Z,95064.91
2019-05-29T23:07:47.189Z,95067.52
2019-05-29T23:10:16.516Z,95072.52
2019-05-29T23:12:45.154Z,95078.30
2019-05-29T23:15:13.956Z,95079.11
2019-05-29T23:17:42.632Z,95072.52
2019-05-29T23:20:12.264Z,95078.58
2019-05-29T23:22:40.828Z,95084.35
2019-05-29T23:25:13.358Z,95079.11
2019-05-29T23:27:42.006Z,95076.22
2019-05-29T23:30:10.638Z,95068.87
2019-05-29T23:32:39.265Z,95078.34
2019-05-29T23:35:08.665Z,95078.62
2019-05-29T23:37:37.290Z,95083.61
2019-05-29T23:40:07.931Z,95091.48
2019-05-29T23:42:36.555Z,95090.17
2019-05-29T23:45:08.381Z,95090.44
2019-05-29T23:47:37.032Z,95088.34
2019-05-29T23:50:06.566Z,95090.19
2019-05-29T23:52:35.234Z,95095.96
2019-05-29T23:55:04.661Z,95091.22
2019-05-29T23:57:33.287Z,95094.91
